createdAt,value
2023-03-25T00:02:24.163Z,1.00
2023-03-25T00:04:54.610Z,0.90
2023-03-25T00:07:22.648Z,1.43
2023-03-25T00:09:49.697Z,0.90
2023-03-25T00:12:18.980Z,0.90
2023-03-25T00:14:54.313Z,1.13
2023-03-25T00:17:24.923Z,0.93
2023-03-25T00:19:51.819Z,1.03
2023-03-25T00:22:19.046Z,0.97
2023-03-25T00:24:45.937Z,0.80
2023-03-25T00:27:14.237Z,1.33
2023-03-25T00:29:45.190Z,1.23
2023-03-25T00:32:14.029Z,1.10
2023-03-25T00:34:47.576Z,1.13
2023-03-25T00:37:21.900Z,1.50
2023-03-25T00:39:48.783Z,1.20
2023-03-25T00:42:16.476Z,1.50
2023-03-25T00:44:43.440Z,1.30
2023-03-25T00:47:11.860Z,1.50
2023-03-25T00:49:38.530Z,1.33
2023-03-25T00:52:05.225Z,1.43
2023-03-25T00:54:34.040Z,1.33
2023-03-25T00:57:00.889Z,1.50
2023-03-25T00:59:27.601Z,1.57
2023-03-25T01:01:56.094Z,1.50
2023-03-25T01:04:22.740Z,1.63
2023-03-25T01:06:51.863Z,1.50
2023-03-25T01:09:20.281Z,1.43
2023-03-25T01:11:49.670Z,1.50
2023-03-25T01:14:24.113Z,1.20
2023-03-25T01:16:50.852Z,1.40
2023-03-25T01:19:17.615Z,1.33
2023-03-25T01:21:45.285Z,1.30
2023-03-25T01:24:15.316Z,1.33
2023-03-25T01:26:43.613Z,1.23
2023-03-25T01:29:16.110Z,1.07
2023-03-25T01:31:43.276Z,1.57
2023-03-25T01:34:10.744Z,0.93
2023-03-25T01:36:39.850Z,1.00
2023-03-25T01:39:08.621Z,1.10
2023-03-25T01:41:49.136Z,0.70
2023-03-25T01:44:19.894Z,1.20
2023-03-25T01:46:49.128Z,0.80
2023-03-25T01:49:38.770Z,1.00
2023-03-25T01:52:16.714Z,0.87
2023-03-25T01:54:45.567Z,0.80
2023-03-25T01:57:14.941Z,0.80
2023-03-25T01:59:42.060Z,0.80
2023-03-25T02:02:09.592Z,1.10
2023-03-25T02:04:45.268Z,1.00
2023-03-25T02:07:12.915Z,0.70
2023-03-25T02:09:39.569Z,0.87
2023-03-25T02:12:06.334Z,0.50
2023-03-25T02:14:36.002Z,0.57
2023-03-25T02:17:26.127Z,0.67
2023-03-25T02:20:20.247Z,0.80
2023-03-25T02:23:30.011Z,1.20
2023-03-25T02:26:42.087Z,0.80
2023-03-25T02:29:37.801Z,0.80
2023-03-25T02:32:22.784Z,0.50
2023-03-25T02:35:07.777Z,0.80
2023-03-25T02:38:02.507Z,1.80
2023-03-25T02:40:40.546Z,0.70
2023-03-25T02:43:23.096Z,0.50
2023-03-25T02:45:57.741Z,0.70
2023-03-25T02:48:34.390Z,0.87
2023-03-25T02:51:06.920Z,0.73
2023-03-25T02:53:36.228Z,0.73
2023-03-25T02:56:10.934Z,0.40
2023-03-25T02:58:40.688Z,0.57
2023-03-25T03:01:10.090Z,0.60
2023-03-25T03:03:37.104Z,0.60
2023-03-25T03:06:06.611Z,0.67
2023-03-25T03:09:06.713Z,0.60
2023-03-25T03:11:56.943Z,1.27
2023-03-25T03:14:42.110Z,0.80
2023-03-25T03:17:18.356Z,0.67
2023-03-25T03:19:58.134Z,0.60
2023-03-25T03:22:43.443Z,0.83
2023-03-25T03:25:16.328Z,1.00
2023-03-25T03:27:51.682Z,0.53
2023-03-25T03:30:39.929Z,0.80
2023-03-25T03:33:25.415Z,0.70
2023-03-25T03:36:02.244Z,0.60
2023-03-25T03:38:34.773Z,0.50
2023-03-25T03:41:11.578Z,0.80
2023-03-25T03:43:45.165Z,1.03
2023-03-25T03:46:48.024Z,0.50
2023-03-25T03:49:20.369Z,0.90
2023-03-25T03:51:56.512Z,0.93
2023-03-25T03:54:31.568Z,0.90
2023-03-25T03:57:29.737Z,0.80
2023-03-25T04:00:21.093Z,0.83
2023-03-25T04:02:54.351Z,0.63
2023-03-25T04:05:23.105Z,0.50
2023-03-25T04:08:00.509Z,0.50
2023-03-25T04:10:52.589Z,0.70
2023-03-25T04:13:21.923Z,0.50
2023-03-25T04:15:49.537Z,0.40
2023-03-25T04:18:17.608Z,0.50
2023-03-25T04:20:44.717Z,0.60
2023-03-25T04:23:18.281Z,0.73
2023-03-25T04:25:49.735Z,0.67
2023-03-25T04:28:18.085Z,0.60
2023-03-25T04:30:45.312Z,0.47
2023-03-25T04:33:13.249Z,0.60
2023-03-25T04:35:40.517Z,0.70
2023-03-25T04:38:07.884Z,0.87
2023-03-25T04:40:34.582Z,0.60
2023-03-25T04:43:01.257Z,0.57
2023-03-25T04:45:28.708Z,0.60
2023-03-25T04:47:55.521Z,0.70
2023-03-25T04:50:28.060Z,0.53
2023-03-25T04:52:57.611Z,0.20
2023-03-25T04:55:25.703Z,0.40
2023-03-25T04:57:54.200Z,0.60
2023-03-25T05:00:24.048Z,0.60
2023-03-25T05:02:53.965Z,0.30
2023-03-25T05:05:24.197Z,0.30
2023-03-25T05:07:53.323Z,0.30
2023-03-25T05:10:22.190Z,0.40
2023-03-25T05:12:49.424Z,0.30
2023-03-25T05:15:19.623Z,0.23
2023-03-25T05:17:46.378Z,0.87
2023-03-25T05:20:14.693Z,0.50
2023-03-25T05:22:41.996Z,0.40
2023-03-25T05:25:10.010Z,0.40
2023-03-25T05:27:37.932Z,0.50
2023-03-25T05:30:07.894Z,0.60
2023-03-25T05:32:34.698Z,0.63
2023-03-25T05:35:02.742Z,0.60
2023-03-25T05:37:29.424Z,0.60
2023-03-25T05:39:56.399Z,0.30
2023-03-25T05:42:23.672Z,0.50
2023-03-25T05:44:51.453Z,0.40
2023-03-25T05:47:23.882Z,0.70
2023-03-25T05:49:52.275Z,0.60
2023-03-25T05:52:19.954Z,0.50
2023-03-25T05:54:51.662Z,0.77
2023-03-25T05:57:18.604Z,0.60
2023-03-25T05:59:45.487Z,0.50
2023-03-25T06:02:16.825Z,0.60
2023-03-25T06:04:44.670Z,0.70
2023-03-25T06:07:20.084Z,0.70
2023-03-25T06:09:48.337Z,0.43
2023-03-25T06:12:20.056Z,0.50
2023-03-25T06:14:48.121Z,0.70
2023-03-25T06:17:16.298Z,0.60
2023-03-25T06:19:42.941Z,0.50
2023-03-25T06:22:11.396Z,0.60
2023-03-25T06:24:39.231Z,0.40
2023-03-25T06:27:08.170Z,0.50
2023-03-25T06:29:37.091Z,0.60
2023-03-25T06:32:06.704Z,0.83
2023-03-25T06:34:33.389Z,0.43
2023-03-25T06:37:01.228Z,0.77
2023-03-25T06:39:31.208Z,0.40
2023-03-25T06:41:59.784Z,0.53
2023-03-25T06:44:30.840Z,0.60
2023-03-25T06:47:00.534Z,0.47
2023-03-25T06:49:27.227Z,0.60
2023-03-25T06:51:53.866Z,0.60
2023-03-25T06:54:20.593Z,0.60
2023-03-25T06:56:47.240Z,0.73
2023-03-25T06:59:13.928Z,0.93
2023-03-25T07:01:41.309Z,0.80
2023-03-25T07:04:08.022Z,0.90
2023-03-25T07:06:34.653Z,0.90
2023-03-25T07:09:01.249Z,0.70
2023-03-25T07:11:29.813Z,0.70
2023-03-25T07:13:56.713Z,0.83
2023-03-25T07:16:24.569Z,0.50
2023-03-25T07:18:51.925Z,1.10
2023-03-25T07:21:19.367Z,0.90
2023-03-25T07:23:46.126Z,0.60
2023-03-25T07:26:16.610Z,1.20
2023-03-25T07:28:43.266Z,0.63
2023-03-25T07:31:12.197Z,0.70
2023-03-25T07:33:39.040Z,0.40
2023-03-25T07:36:08.526Z,0.70
2023-03-25T07:38:35.681Z,0.50
2023-03-25T07:41:07.666Z,0.40
2023-03-25T07:43:34.427Z,0.60
2023-03-25T07:46:01.335Z,0.50
2023-03-25T07:48:28.411Z,0.50
2023-03-25T07:50:55.276Z,1.37
2023-03-25T07:53:21.979Z,0.50
2023-03-25T07:55:52.151Z,0.37
2023-03-25T07:58:19.378Z,0.50
2023-03-25T08:00:46.251Z,0.77
2023-03-25T08:03:13.662Z,0.80
2023-03-25T08:05:47.825Z,0.60
2023-03-25T08:08:16.798Z,0.90
2023-03-25T08:10:44.172Z,1.00
2023-03-25T08:13:11.907Z,0.80
2023-03-25T08:15:39.327Z,0.90
2023-03-25T08:18:07.198Z,0.87
2023-03-25T08:20:34.706Z,1.00
2023-03-25T08:23:02.939Z,1.10
2023-03-25T08:25:30.838Z,0.60
2023-03-25T08:27:57.557Z,1.30
2023-03-25T08:30:25.056Z,1.07
2023-03-25T08:32:54.644Z,0.80
2023-03-25T08:35:27.499Z,0.93
2023-03-25T08:37:54.159Z,1.10
2023-03-25T08:40:21.524Z,1.10
2023-03-25T08:42:48.238Z,1.00
2023-03-25T08:45:15.459Z,0.90
2023-03-25T08:47:43.605Z,1.30
2023-03-25T08:50:10.595Z,1.00
2023-03-25T08:52:37.420Z,1.23
2023-03-25T08:55:08.656Z,1.03
2023-03-25T08:57:37.763Z,1.10
2023-03-25T09:00:14.896Z,1.03
2023-03-25T09:02:43.952Z,1.17
2023-03-25T09:05:12.646Z,1.07
2023-03-25T09:07:39.954Z,1.20
2023-03-25T09:10:07.852Z,1.30
2023-03-25T09:12:34.761Z,1.10
2023-03-25T09:15:01.482Z,0.87
2023-03-25T09:17:28.560Z,1.23
2023-03-25T09:19:56.438Z,1.60
2023-03-25T09:22:27.198Z,1.00
2023-03-25T09:24:53.835Z,1.10
2023-03-25T09:27:20.538Z,0.90
2023-03-25T09:29:47.176Z,0.80
2023-03-25T09:32:15.000Z,0.80
2023-03-25T09:34:41.715Z,0.50
2023-03-25T09:37:09.434Z,1.20
2023-03-25T09:39:36.196Z,1.07
2023-03-25T09:42:37.351Z,0.70
2023-03-25T09:45:24.394Z,0.87
2023-03-25T09:48:02.099Z,0.60
2023-03-25T09:50:35.424Z,0.63
2023-03-25T09:53:27.326Z,0.77
2023-03-25T09:55:54.175Z,0.60
2023-03-25T09:58:26.975Z,0.70
2023-03-25T10:01:08.169Z,0.90
2023-03-25T10:03:55.390Z,0.90
2023-03-25T10:06:26.176Z,0.80
2023-03-25T10:09:10.358Z,0.80
2023-03-25T10:12:04.531Z,0.90
2023-03-25T10:14:55.423Z,0.70
2023-03-25T10:17:29.184Z,0.70
2023-03-25T10:20:07.199Z,0.70
2023-03-25T10:23:06.047Z,0.90
2023-03-25T10:25:38.162Z,0.67
2023-03-25T10:28:07.102Z,1.77
2023-03-25T10:30:44.470Z,1.00
2023-03-25T10:33:31.465Z,0.70
2023-03-25T10:35:59.983Z,0.90
2023-03-25T10:38:26.808Z,0.93
2023-03-25T10:41:16.466Z,0.97
2023-03-25T10:43:43.949Z,1.10
2023-03-25T10:46:34.421Z,0.93
2023-03-25T10:49:01.365Z,0.93
2023-03-25T10:51:31.906Z,0.70
2023-03-25T10:54:00.073Z,0.70
2023-03-25T10:56:32.584Z,0.87
2023-03-25T10:59:04.980Z,0.60
2023-03-25T11:01:39.613Z,1.03
2023-03-25T11:04:09.230Z,0.70
2023-03-25T11:06:41.302Z,0.60
2023-03-25T11:09:25.719Z,0.77
2023-03-25T11:11:55.855Z,0.57
2023-03-25T11:14:24.756Z,0.70
2023-03-25T11:17:03.920Z,1.07
2023-03-25T11:19:53.905Z,0.70
2023-03-25T11:22:30.741Z,0.57
2023-03-25T11:25:16.477Z,0.40
2023-03-25T11:27:49.721Z,0.17
2023-03-25T11:30:19.657Z,0.20
2023-03-25T11:33:03.890Z,0.40
2023-03-25T11:35:36.420Z,0.63
2023-03-25T11:38:32.324Z,0.73
2023-03-25T11:40:59.492Z,0.57
2023-03-25T11:43:48.486Z,0.30
2023-03-25T11:46:18.837Z,0.30
2023-03-25T11:48:46.753Z,0.30
2023-03-25T11:51:31.246Z,0.20
2023-03-25T11:54:02.224Z,0.37
2023-03-25T11:56:33.994Z,0.33
2023-03-25T11:59:01.938Z,0.33
2023-03-25T12:01:37.545Z,0.33
2023-03-25T12:04:17.412Z,0.40
2023-03-25T12:07:00.666Z,0.50
2023-03-25T12:09:30.703Z,0.50
2023-03-25T12:12:16.389Z,0.47
2023-03-25T12:14:47.824Z,0.50
2023-03-25T12:17:38.290Z,0.40
2023-03-25T12:20:23.612Z,0.33
2023-03-25T12:23:00.389Z,0.40
2023-03-25T12:25:49.130Z,0.50
2023-03-25T12:28:34.262Z,0.27
2023-03-25T12:31:01.357Z,0.40
2023-03-25T12:33:51.338Z,0.20
2023-03-25T12:36:54.712Z,0.20
2023-03-25T12:39:29.274Z,0.40
2023-03-25T12:42:29.216Z,0.30
2023-03-25T12:45:24.347Z,0.30
2023-03-25T12:48:17.231Z,0.50
2023-03-25T12:51:05.387Z,0.37
2023-03-25T12:54:04.546Z,0.43
2023-03-25T12:57:16.563Z,0.30
2023-03-25T12:59:53.722Z,0.30
2023-03-25T13:02:30.128Z,0.30
2023-03-25T13:05:15.857Z,0.40
2023-03-25T13:07:49.189Z,0.30
2023-03-25T13:10:19.733Z,0.23
2023-03-25T13:12:55.306Z,0.30
2023-03-25T13:15:42.358Z,0.10
2023-03-25T13:18:47.423Z,0.30
2023-03-25T13:21:18.226Z,0.40
2023-03-25T13:23:52.475Z,0.30
2023-03-25T13:26:23.078Z,0.30
2023-03-25T13:29:12.015Z,0.40
2023-03-25T13:31:46.516Z,0.40
2023-03-25T13:34:45.416Z,0.40
2023-03-25T13:37:22.123Z,0.40
2023-03-25T13:40:24.405Z,0.83
2023-03-25T13:43:02.634Z,0.30
2023-03-25T13:45:34.260Z,0.33
2023-03-25T13:48:16.426Z,0.50
2023-03-25T13:50:43.237Z,0.77
2023-03-25T13:53:22.111Z,0.40
2023-03-25T13:56:18.092Z,0.60
2023-03-25T13:59:03.640Z,0.20
2023-03-25T14:01:36.103Z,0.60
2023-03-25T14:04:06.289Z,0.50
2023-03-25T14:06:51.759Z,0.40
2023-03-25T14:10:02.814Z,0.40
2023-03-25T14:12:31.745Z,0.57
2023-03-25T14:15:23.395Z,0.37
2023-03-25T14:17:52.795Z,0.43
2023-03-25T14:20:29.015Z,0.50
2023-03-25T14:22:58.563Z,0.33
2023-03-25T14:25:39.828Z,0.67
2023-03-25T14:28:08.450Z,0.70
2023-03-25T14:30:35.404Z,0.30
2023-03-25T14:33:03.019Z,0.40
2023-03-25T14:35:38.290Z,0.50
2023-03-25T14:38:08.368Z,0.53
2023-03-25T14:41:02.892Z,0.50
2023-03-25T14:43:36.090Z,0.50
2023-03-25T14:46:13.074Z,0.40
2023-03-25T14:48:47.729Z,0.43
2023-03-25T14:51:44.627Z,0.50
2023-03-25T14:54:41.410Z,0.57
2023-03-25T14:57:15.905Z,0.43
2023-03-25T14:59:57.780Z,0.60
2023-03-25T15:02:26.903Z,0.67
2023-03-25T15:05:12.011Z,0.70
2023-03-25T15:07:44.198Z,0.60
2023-03-25T15:10:30.372Z,0.60
2023-03-25T15:13:20.013Z,0.70
2023-03-25T15:15:47.169Z,0.60
2023-03-25T15:18:36.822Z,0.60
2023-03-25T15:21:07.820Z,0.40
2023-03-25T15:23:49.892Z,0.50
2023-03-25T15:26:33.334Z,0.50
2023-03-25T15:29:21.133Z,0.70
2023-03-25T15:32:11.946Z,0.60
2023-03-25T15:34:55.069Z,0.67
2023-03-25T15:38:03.793Z,0.70
2023-03-25T15:40:32.172Z,1.40
2023-03-25T15:43:26.401Z,1.30
2023-03-25T15:46:01.945Z,1.50
2023-03-25T15:48:31.554Z,1.07
2023-03-25T15:51:03.961Z,1.20
2023-03-25T15:53:42.833Z,1.17
2023-03-25T15:56:24.406Z,0.63
2023-03-25T15:59:18.586Z,0.60
2023-03-25T16:01:50.903Z,0.70
2023-03-25T16:04:20.346Z,0.63
2023-03-25T16:06:53.048Z,0.83
2023-03-25T16:09:28.937Z,0.60
2023-03-25T16:12:03.174Z,0.70
2023-03-25T16:14:32.924Z,0.60
2023-03-25T16:17:04.953Z,0.50
2023-03-25T16:19:54.367Z,0.50
2023-03-25T16:22:28.630Z,1.10
2023-03-25T16:24:58.620Z,0.73
2023-03-25T16:27:31.407Z,0.90
2023-03-25T16:29:58.100Z,0.80
2023-03-25T16:32:31.392Z,0.83
2023-03-25T16:34:58.210Z,0.83
2023-03-25T16:37:25.621Z,0.73
2023-03-25T16:39:57.527Z,0.70
2023-03-25T16:42:34.225Z,0.40
2023-03-25T16:45:02.085Z,0.60
2023-03-25T16:47:32.746Z,0.80
2023-03-25T16:50:02.818Z,0.80
2023-03-25T16:52:32.429Z,0.80
2023-03-25T16:54:58.988Z,1.10
2023-03-25T16:57:28.937Z,0.70
2023-03-25T16:59:56.355Z,0.90
2023-03-25T17:02:29.993Z,0.77
2023-03-25T17:05:32.734Z,0.80
2023-03-25T17:08:04.963Z,0.70
2023-03-25T17:11:05.128Z,0.77
2023-03-25T17:13:41.789Z,0.43
2023-03-25T17:16:08.929Z,0.80
2023-03-25T17:18:39.000Z,0.77
2023-03-25T17:21:11.527Z,0.70
2023-03-25T17:23:47.604Z,1.10
2023-03-25T17:26:19.938Z,0.77
2023-03-25T17:28:58.653Z,0.87
2023-03-25T17:31:33.038Z,0.70
2023-03-25T17:34:08.569Z,0.77
2023-03-25T17:36:41.183Z,1.10
2023-03-25T17:39:26.314Z,1.30
2023-03-25T17:42:19.563Z,0.70
2023-03-25T17:44:46.205Z,0.87
2023-03-25T17:47:15.909Z,0.60
2023-03-25T17:49:43.124Z,1.07
2023-03-25T17:52:09.854Z,1.00
2023-03-25T17:54:37.064Z,0.90
2023-03-25T17:57:19.117Z,1.00
2023-03-25T17:59:46.600Z,0.83
2023-03-25T18:02:15.858Z,0.90
2023-03-25T18:04:42.891Z,0.80
2023-03-25T18:07:09.672Z,0.87
2023-03-25T18:09:37.540Z,0.90
2023-03-25T18:12:04.361Z,1.20
2023-03-25T18:14:31.440Z,1.00
2023-03-25T18:16:58.130Z,1.33
2023-03-25T18:19:27.686Z,0.90
2023-03-25T18:21:54.972Z,1.67
2023-03-25T18:24:22.644Z,1.30
2023-03-25T18:26:49.887Z,1.50
2023-03-25T18:29:37.169Z,1.30
2023-03-25T18:32:03.876Z,2.07
2023-03-25T18:34:30.706Z,2.23
2023-03-25T18:36:57.883Z,1.70
2023-03-25T18:39:27.259Z,1.50
2023-03-25T18:41:53.943Z,1.60
2023-03-25T18:44:21.205Z,1.27
2023-03-25T18:46:47.927Z,2.10
2023-03-25T18:49:17.159Z,1.83
2023-03-25T18:51:44.007Z,1.77
2023-03-25T18:54:11.207Z,1.37
2023-03-25T18:56:38.104Z,1.77
2023-03-25T18:59:04.930Z,1.70
2023-03-25T19:01:31.821Z,1.60
2023-03-25T19:04:07.164Z,1.43
2023-03-25T19:06:34.018Z,1.23
2023-03-25T19:09:00.785Z,1.43
2023-03-25T19:11:28.035Z,1.63
2023-03-25T19:13:54.729Z,1.37
2023-03-25T19:16:21.930Z,1.63
2023-03-25T19:18:48.748Z,1.70
2023-03-25T19:21:19.659Z,1.70
2023-03-25T19:23:47.340Z,1.73
2023-03-25T19:26:14.367Z,1.40
2023-03-25T19:28:41.226Z,1.53
2023-03-25T19:31:07.994Z,1.40
2023-03-25T19:33:34.781Z,2.13
2023-03-25T19:36:03.793Z,1.13
2023-03-25T19:38:32.825Z,1.67
2023-03-25T19:41:06.611Z,1.40
2023-03-25T19:43:33.662Z,1.00
2023-03-25T19:46:01.318Z,1.40
2023-03-25T19:48:31.570Z,1.13
2023-03-25T19:50:58.532Z,1.20
2023-03-25T19:53:26.672Z,1.23
2023-03-25T19:55:53.888Z,0.63
2023-03-25T19:58:22.989Z,1.07
2023-03-25T20:00:50.290Z,1.10
2023-03-25T20:03:17.153Z,0.83
2023-03-25T20:05:43.867Z,0.80
2023-03-25T20:08:11.651Z,1.07
2023-03-25T20:10:39.905Z,1.03
2023-03-25T20:13:06.924Z,0.90
2023-03-25T20:15:34.003Z,0.53
2023-03-25T20:18:00.817Z,0.40
2023-03-25T20:20:27.684Z,0.30
2023-03-25T20:22:55.485Z,0.70
2023-03-25T20:25:22.193Z,0.50
2023-03-25T20:27:48.928Z,0.43
2023-03-25T20:30:18.686Z,0.40
2023-03-25T20:32:48.127Z,0.57
2023-03-25T20:35:16.359Z,0.70
2023-03-25T20:37:44.198Z,0.60
2023-03-25T20:40:14.250Z,0.80
2023-03-25T20:42:45.750Z,0.80
2023-03-25T20:45:14.763Z,0.93
2023-03-25T20:47:42.324Z,0.70
2023-03-25T20:50:10.784Z,1.10
2023-03-25T20:52:37.895Z,0.80
2023-03-25T20:55:05.781Z,1.23
2023-03-25T20:57:33.372Z,0.40
2023-03-25T21:00:00.649Z,0.60
2023-03-25T21:02:27.921Z,0.73
2023-03-25T21:04:59.098Z,0.50
2023-03-25T21:07:32.159Z,0.40
2023-03-25T21:09:59.390Z,0.70
2023-03-25T21:12:36.515Z,0.90
2023-03-25T21:15:10.153Z,0.50
2023-03-25T21:17:39.731Z,0.70
2023-03-25T21:20:07.738Z,0.70
2023-03-25T21:22:35.728Z,0.53
2023-03-25T21:25:02.457Z,0.60
2023-03-25T21:27:37.851Z,0.70
2023-03-25T21:30:09.667Z,0.80
2023-03-25T21:32:41.888Z,0.73
2023-03-25T21:35:09.962Z,0.70
2023-03-25T21:37:40.411Z,0.70
2023-03-25T21:40:10.871Z,0.80
2023-03-25T21:42:38.680Z,0.90
2023-03-25T21:45:07.337Z,0.70
2023-03-25T21:47:35.760Z,0.77
2023-03-25T21:50:05.960Z,0.70
2023-03-25T21:52:32.629Z,0.80
2023-03-25T21:54:59.278Z,0.93
2023-03-25T21:57:26.605Z,0.57
2023-03-25T21:59:57.010Z,0.90
2023-03-25T22:02:25.485Z,0.97
2023-03-25T22:04:53.933Z,1.00
2023-03-25T22:07:20.765Z,0.93
2023-03-25T22:09:48.241Z,0.83
2023-03-25T22:12:14.951Z,1.30
2023-03-25T22:14:43.553Z,0.83
2023-03-25T22:17:10.372Z,0.87
2023-03-25T22:19:37.041Z,0.83
2023-03-25T22:22:04.093Z,0.70
2023-03-25T22:24:31.315Z,0.70
2023-03-25T22:26:58.005Z,0.73
2023-03-25T22:29:24.626Z,0.90
2023-03-25T22:31:55.596Z,0.63
2023-03-25T22:34:22.321Z,1.00
2023-03-25T22:36:52.905Z,1.00
2023-03-25T22:39:22.879Z,0.83
2023-03-25T22:41:49.585Z,0.60
2023-03-25T22:44:17.942Z,0.70
2023-03-25T22:46:47.211Z,0.87
2023-03-25T22:49:14.538Z,0.80
2023-03-25T22:51:41.336Z,0.60
2023-03-25T22:54:09.808Z,0.90
2023-03-25T22:56:37.552Z,0.40
2023-03-25T22:59:06.177Z,0.93
2023-03-25T23:01:34.365Z,0.80
2023-03-25T23:04:01.178Z,0.80
2023-03-25T23:06:27.949Z,1.17
2023-03-25T23:08:58.829Z,0.70
2023-03-25T23:11:28.137Z,0.80
2023-03-25T23:14:00.453Z,1.13
2023-03-25T23:16:30.830Z,0.93
2023-03-25T23:18:58.495Z,0.80
2023-03-25T23:21:28.515Z,0.70
2023-03-25T23:23:58.094Z,0.60
2023-03-25T23:26:34.887Z,1.00
2023-03-25T23:29:03.035Z,1.03
2023-03-25T23:31:33.637Z,0.40
2023-03-25T23:34:06.280Z,0.90
2023-03-25T23:36:36.001Z,0.70
2023-03-25T23:39:06.262Z,0.90
2023-03-25T23:41:33.126Z,0.50
2023-03-25T23:43:59.840Z,1.20
2023-03-25T23:46:27.436Z,1.50
2023-03-25T23:48:54.720Z,0.70
2023-03-25T23:51:24.675Z,0.77
2023-03-25T23:53:52.359Z,0.90
2023-03-25T23:56:22.748Z,1.10
2023-03-25T23:58:50.301Z,0.90
